sensor_id;sensor_type;location;lat;lon;timestamp;pressure;altitude;pressure_sealevel;temperature;humidity
73063;BME280;61230;46.328;19.972;2023-05-15T00:01:09;99953.06;;;14.20;100.00
73063;BME280;61230;46.328;19.972;2023-05-15T00:03:36;99948.59;;;14.20;100.00
73063;BME280;61230;46.328;19.972;2023-05-15T00:06:04;99940.84;;;14.19;100.00
73063;BME280;61230;46.328;19.972;2023-05-15T00:08:32;99936.34;;;14.19;100.00
73063;BME280;61230;46.328;19.972;2023-05-15T00:11:00;99931.75;;;14.13;100.00
73063;BME280;61230;46.328;19.972;2023-05-15T00:13:28;99933.59;;;14.13;100.00
73063;BME280;61230;46.328;19.972;2023-05-15T00:15:56;99929.31;;;14.12;100.00
73063;BME280;61230;46.328;19.972;2023-05-15T00:18:24;99927.53;;;14.04;100.00
73063;BME280;61230;46.328;19.972;2023-05-15T00:20:52;99915.94;;;14.05;100.00
73063;BME280;61230;46.328;19.972;2023-05-15T00:23:19;99918.94;;;14.02;100.00
73063;BME280;61230;46.328;19.972;2023-05-15T00:25:47;99911.00;;;14.02;100.00
73063;BME280;61230;46.328;19.972;2023-05-15T00:28:15;99909.37;;;14.01;100.00
73063;BME280;61230;46.328;19.972;2023-05-15T00:30:42;99898.78;;;14.01;100.00
73063;BME280;61230;46.328;19.972;2023-05-15T00:33:10;99902.63;;;13.99;100.00
73063;BME280;61230;46.328;19.972;2023-05-15T00:35:37;99899.66;;;13.94;100.00
73063;BME280;61230;46.328;19.972;2023-05-15T00:38:05;99864.53;;;13.77;100.00
73063;BME280;61230;46.328;19.972;2023-05-15T00:40:33;99882.50;;;13.90;100.00
73063;BME280;61230;46.328;19.972;2023-05-15T00:43:02;99881.84;;;13.88;100.00
73063;BME280;61230;46.328;19.972;2023-05-15T00:45:30;99883.25;;;13.75;100.00
73063;BME280;61230;46.328;19.972;2023-05-15T00:47:59;99885.53;;;13.78;100.00
73063;BME280;61230;46.328;19.972;2023-05-15T00:50:28;99893.59;;;13.85;100.00
73063;BME280;61230;46.328;19.972;2023-05-15T00:52:56;99888.13;;;13.87;100.00
73063;BME280;61230;46.328;19.972;2023-05-15T00:55:24;99895.59;;;13.83;100.00
73063;BME280;61230;46.328;19.972;2023-05-15T00:57:53;99895.59;;;13.83;100.00
73063;BME280;61230;46.328;19.972;2023-05-15T01:00:23;99892.94;;;13.83;100.00
73063;BME280;61230;46.328;19.972;2023-05-15T01:02:52;99903.16;;;13.86;100.00
73063;BME280;61230;46.328;19.972;2023-05-15T01:05:20;99880.19;;;13.87;100.00
73063;BME280;61230;46.328;19.972;2023-05-15T01:07:53;99885.50;;;13.87;100.00
73063;BME280;61230;46.328;19.972;2023-05-15T01:10:24;99887.94;;;13.88;100.00
73063;BME280;61230;46.328;19.972;2023-05-15T01:12:52;99845.16;;;13.62;100.00
73063;BME280;61230;46.328;19.972;2023-05-15T01:15:22;99853.09;;;13.62;100.00
73063;BME280;61230;46.328;19.972;2023-05-15T01:17:50;99903.81;;;13.88;100.00
73063;BME280;61230;46.328;19.972;2023-05-15T01:20:19;99897.53;;;13.89;100.00
73063;BME280;61230;46.328;19.972;2023-05-15T01:25:45;99863.66;;;13.62;100.00
73063;BME280;61230;46.328;19.972;2023-05-15T01:28:24;99895.72;;;13.90;100.00
73063;BME280;61230;46.328;19.972;2023-05-15T01:30:55;99900.38;;;13.88;100.00
73063;BME280;61230;46.328;19.972;2023-05-15T01:33:27;99895.25;;;13.86;100.00
73063;BME280;61230;46.328;19.972;2023-05-15T01:41:34;99890.59;;;13.88;100.00
73063;BME280;61230;46.328;19.972;2023-05-15T01:44:03;99890.59;;;13.88;100.00
73063;BME280;61230;46.328;19.972;2023-05-15T01:46:38;99888.63;;;13.90;100.00
73063;BME280;61230;46.328;19.972;2023-05-15T01:49:12;99881.66;;;13.89;100.00
73063;BME280;61230;46.328;19.972;2023-05-15T01:51:41;99845.94;;;13.62;100.00
73063;BME280;61230;46.328;19.972;2023-05-15T01:54:12;99888.97;;;13.87;100.00
73063;BME280;61230;46.328;19.972;2023-05-15T01:56:42;99899.34;;;13.89;100.00
73063;BME280;61230;46.328;19.972;2023-05-15T01:59:12;99890.44;;;13.90;100.00
73063;BME280;61230;46.328;19.972;2023-05-15T02:01:41;99893.22;;;13.88;100.00
73063;BME280;61230;46.328;19.972;2023-05-15T02:04:11;99897.72;;;13.88;100.00
73063;BME280;61230;46.328;19.972;2023-05-15T02:06:40;99849.63;;;13.61;100.00
73063;BME280;61230;46.328;19.972;2023-05-15T02:09:09;99895.25;;;13.86;100.00
73063;BME280;61230;46.328;19.972;2023-05-15T02:11:37;99865.59;;;13.68;100.00
73063;BME280;61230;46.328;19.972;2023-05-15T02:14:05;99895.59;;;13.83;100.00
73063;BME280;61230;46.328;19.972;2023-05-15T02:16:34;99860.69;;;13.57;100.00
73063;BME280;61230;46.328;19.972;2023-05-15T02:19:02;99904.06;;;13.78;100.00
73063;BME280;61230;46.328;19.972;2023-05-15T02:21:30;99909.03;;;13.73;100.00
73063;BME280;61230;46.328;19.972;2023-05-15T02:23:57;99896.97;;;13.71;100.00
73063;BME280;61230;46.328;19.972;2023-05-15T02:26:33;99905.25;;;13.68;100.00
73063;BME280;61230;46.328;19.972;2023-05-15T02:29:10;99903.63;;;13.67;100.00
73063;BME280;61230;46.328;19.972;2023-05-15T02:32:21;99901.31;;;13.64;100.00
73063;BME280;61230;46.328;19.972;2023-05-15T02:37:47;99895.25;;;13.55;100.00
73063;BME280;61230;46.328;19.972;2023-05-15T02:40:15;99886.87;;;13.44;100.00
73063;BME280;61230;46.328;19.972;2023-05-15T02:42:44;99892.16;;;13.44;100.00
73063;BME280;61230;46.328;19.972;2023-05-15T02:45:13;99839.44;;;13.11;100.00
73063;BME280;61230;46.328;19.972;2023-05-15T02:47:41;99835.81;;;13.12;100.00
73063;BME280;61230;46.328;19.972;2023-05-15T02:50:09;99884.91;;;13.38;100.00
73063;BME280;61230;46.328;19.972;2023-05-15T02:52:37;99884.91;;;13.38;100.00
73063;BME280;61230;46.328;19.972;2023-05-15T02:55:05;99838.97;;;13.08;100.00
73063;BME280;61230;46.328;19.972;2023-05-15T02:57:33;99870.06;;;13.37;100.00
73063;BME280;61230;46.328;19.972;2023-05-15T03:00:00;99876.69;;;13.33;100.00
73063;BME280;61230;46.328;19.972;2023-05-15T03:02:28;99884.13;;;13.29;100.00
73063;BME280;61230;46.328;19.972;2023-05-15T03:04:56;99833.16;;;13.04;100.00
73063;BME280;61230;46.328;19.972;2023-05-15T03:07:23;99882.66;;;13.27;100.00
73063;BME280;61230;46.328;19.972;2023-05-15T03:09:51;99895.50;;;13.30;100.00
73063;BME280;61230;46.328;19.972;2023-05-15T03:12:19;99882.31;;;13.30;100.00
73063;BME280;61230;46.328;19.972;2023-05-15T03:14:46;99879.16;;;13.26;100.00
73063;BME280;61230;46.328;19.972;2023-05-15T03:17:14;99882.50;;;13.28;100.00
73063;BME280;61230;46.328;19.972;2023-05-15T03:19:42;99843.09;;;12.94;100.00
73063;BME280;61230;46.328;19.972;2023-05-15T03:22:09;99884.31;;;13.28;100.00
73063;BME280;61230;46.328;19.972;2023-05-15T03:24:37;99875.88;;;13.24;100.00
73063;BME280;61230;46.328;19.972;2023-05-15T03:27:05;99878.69;;;13.22;100.00
73063;BME280;61230;46.328;19.972;2023-05-15T03:29:32;99866.00;;;13.18;100.00
73063;BME280;61230;46.328;19.972;2023-05-15T03:32:00;99840.94;;;12.98;100.00
73063;BME280;61230;46.328;19.972;2023-05-15T03:34:27;99879.16;;;13.26;100.00
73063;BME280;61230;46.328;19.972;2023-05-15T03:36:55;99873.41;;;13.22;100.00
73063;BME280;61230;46.328;19.972;2023-05-15T03:39:23;99871.44;;;13.24;100.00
73063;BME280;61230;46.328;19.972;2023-05-15T03:41:50;99872.56;;;13.30;100.00
73063;BME280;61230;46.328;19.972;2023-05-15T03:44:18;99882.13;;;13.31;100.00
73063;BME280;61230;46.328;19.972;2023-05-15T03:46:46;99865.84;;;13.19;100.00
73063;BME280;61230;46.328;19.972;2023-05-15T03:49:13;99864.19;;;13.18;100.00
73063;BME280;61230;46.328;19.972;2023-05-15T03:51:41;99850.19;;;13.10;100.00
73063;BME280;61230;46.328;19.972;2023-05-15T03:54:09;99848.50;;;13.17;100.00
73063;BME280;61230;46.328;19.972;2023-05-15T03:56:36;99838.94;;;13.16;100.00
73063;BME280;61230;46.328;19.972;2023-05-15T03:59:04;99836.91;;;13.26;100.00
73063;BME280;61230;46.328;19.972;2023-05-15T04:01:32;99839.69;;;13.33;100.00
73063;BME280;61230;46.328;19.972;2023-05-15T04:04:10;99835.03;;;13.35;100.00
73063;BME280;61230;46.328;19.972;2023-05-15T04:06:38;99834.41;;;13.33;100.00
73063;BME280;61230;46.328;19.972;2023-05-15T04:09:05;99842.81;;;13.36;100.00
73063;BME280;61230;46.328;19.972;2023-05-15T04:11:33;99848.22;;;13.43;100.00
73063;BME280;61230;46.328;19.972;2023-05-15T04:14:00;99842.53;;;13.54;100.00
73063;BME280;61230;46.328;19.972;2023-05-15T04:16:28;99847.47;;;13.57;100.00
73063;BME280;61230;46.328;19.972;2023-05-15T04:18:56;99854.06;;;13.61;100.00
73063;BME280;61230;46.328;19.972;2023-05-15T04:21:23;99851.72;;;13.66;100.00
73063;BME280;61230;46.328;19.972;2023-05-15T04:23:51;99851.03;;;13.72;100.00
73063;BME280;61230;46.328;19.972;2023-05-15T04:26:18;99858.56;;;13.83;100.00
73063;BME280;61230;46.328;19.972;2023-05-15T04:28:46;99852.75;;;13.88;100.00
73063;BME280;61230;46.328;19.972;2023-05-15T04:31:30;99847.28;;;13.89;100.00
73063;BME280;61230;46.328;19.972;2023-05-15T04:33:58;99806.09;;;13.72;100.00
73063;BME280;61230;46.328;19.972;2023-05-15T04:36:26;99843.88;;;14.03;100.00
73063;BME280;61230;46.328;19.972;2023-05-15T04:38:53;99836.41;;;14.07;100.00
73063;BME280;61230;46.328;19.972;2023-05-15T04:41:21;99787.09;;;13.91;100.00
73063;BME280;61230;46.328;19.972;2023-05-15T04:43:49;99818.37;;;14.25;100.00
73063;BME280;61230;46.328;19.972;2023-05-15T04:46:17;99816.47;;;14.42;100.00
73063;BME280;61230;46.328;19.972;2023-05-15T04:48:44;99786.13;;;14.29;100.00
73063;BME280;61230;46.328;19.972;2023-05-15T04:51:12;99803.75;;;14.37;100.00
73063;BME280;61230;46.328;19.972;2023-05-15T04:53:39;99864.34;;;14.69;100.00
73063;BME280;61230;46.328;19.972;2023-05-15T04:56:07;99865.00;;;14.71;100.00
73063;BME280;61230;46.328;19.972;2023-05-15T04:58:34;99861.78;;;14.76;100.00
73063;BME280;61230;46.328;19.972;2023-05-15T05:01:02;99824.50;;;14.48;100.00
73063;BME280;61230;46.328;19.972;2023-05-15T05:03:30;99861.50;;;14.71;100.00
73063;BME280;61230;46.328;19.972;2023-05-15T05:05:59;99856.03;;;14.72;100.00
73063;BME280;61230;46.328;19.972;2023-05-15T05:08:26;99830.53;;;14.57;100.00
73063;BME280;61230;46.328;19.972;2023-05-15T05:10:55;99851.66;;;14.79;100.00
73063;BME280;61230;46.328;19.972;2023-05-15T05:13:23;99830.81;;;14.76;100.00
73063;BME280;61230;46.328;19.972;2023-05-15T05:15:51;99848.03;;;14.95;100.00
73063;BME280;61230;46.328;19.972;2023-05-15T05:18:19;99843.25;;;15.05;100.00
73063;BME280;61230;46.328;19.972;2023-05-15T05:20:46;99854.31;;;15.09;100.00
73063;BME280;61230;46.328;19.972;2023-05-15T05:23:17;99859.25;;;15.12;100.00
73063;BME280;61230;46.328;19.972;2023-05-15T05:25:44;99850.13;;;15.00;100.00
73063;BME280;61230;46.328;19.972;2023-05-15T05:28:12;99852.12;;;14.98;100.00
73063;BME280;61230;46.328;19.972;2023-05-15T05:30:44;99868.66;;;15.00;100.00
73063;BME280;61230;46.328;19.972;2023-05-15T05:33:12;99868.19;;;14.96;100.00
73063;BME280;61230;46.328;19.972;2023-05-15T05:35:40;99864.09;;;14.93;100.00
73063;BME280;61230;46.328;19.972;2023-05-15T05:38:08;99855.87;;;15.03;100.00
73063;BME280;61230;46.328;19.972;2023-05-15T05:40:35;99852.50;;;15.09;100.00
73063;BME280;61230;46.328;19.972;2023-05-15T05:43:04;99847.72;;;15.05;100.00
73063;BME280;61230;46.328;19.972;2023-05-15T05:45:32;99802.16;;;14.80;100.00
73063;BME280;61230;46.328;19.972;2023-05-15T05:47:59;99846.53;;;15.07;100.00
73063;BME280;61230;46.328;19.972;2023-05-15T05:50:28;99836.59;;;15.09;100.00
73063;BME280;61230;46.328;19.972;2023-05-15T05:52:56;99845.19;;;15.11;100.00
73063;BME280;61230;46.328;19.972;2023-05-15T05:55:23;99846.28;;;15.17;100.00
73063;BME280;61230;46.328;19.972;2023-05-15T05:57:52;99857.50;;;15.19;100.00
73063;BME280;61230;46.328;19.972;2023-05-15T06:00:20;99861.19;;;15.18;100.00
73063;BME280;61230;46.328;19.972;2023-05-15T06:02:51;99866.38;;;15.26;100.00
73063;BME280;61230;46.328;19.972;2023-05-15T06:05:21;99876.78;;;15.27;100.00
73063;BME280;61230;46.328;19.972;2023-05-15T06:07:51;99882.44;;;15.24;100.00
73063;BME280;61230;46.328;19.972;2023-05-15T06:10:19;99881.56;;;15.32;100.00
73063;BME280;61230;46.328;19.972;2023-05-15T06:12:47;99884.38;;;15.30;100.00
73063;BME280;61230;46.328;19.972;2023-05-15T06:15:15;99895.16;;;15.29;100.00
73063;BME280;61230;46.328;19.972;2023-05-15T06:17:43;99901.00;;;15.24;100.00
73063;BME280;61230;46.328;19.972;2023-05-15T06:20:10;99910.34;;;15.20;100.00
73063;BME280;61230;46.328;19.972;2023-05-15T06:22:38;99914.91;;;15.12;100.00
73063;BME280;61230;46.328;19.972;2023-05-15T06:25:07;99914.53;;;15.00;100.00
73063;BME280;61230;46.328;19.972;2023-05-15T06:27:40;99920.75;;;14.92;100.00
73063;BME280;61230;46.328;19.972;2023-05-15T06:30:09;99917.97;;;14.86;100.00
73063;BME280;61230;46.328;19.972;2023-05-15T06:32:36;99907.75;;;14.83;100.00
73063;BME280;61230;46.328;19.972;2023-05-15T06:35:04;99910.03;;;14.86;100.00
73063;BME280;61230;46.328;19.972;2023-05-15T06:37:32;99920.34;;;14.81;100.00
73063;BME280;61230;46.328;19.972;2023-05-15T06:39:59;99914.12;;;14.74;100.00
73063;BME280;61230;46.328;19.972;2023-05-15T06:42:27;99940.53;;;14.82;100.00
73063;BME280;61230;46.328;19.972;2023-05-15T06:44:56;99939.87;;;14.80;100.00
73063;BME280;61230;46.328;19.972;2023-05-15T06:47:23;99946.38;;;14.77;100.00
73063;BME280;61230;46.328;19.972;2023-05-15T06:49:53;99945.25;;;14.72;100.00
73063;BME280;61230;46.328;19.972;2023-05-15T06:52:21;99962.16;;;14.71;100.00
73063;BME280;61230;46.328;19.972;2023-05-15T06:54:48;99948.81;;;14.64;100.00
73063;BME280;61230;46.328;19.972;2023-05-15T06:57:17;99946.16;;;14.64;100.00
73063;BME280;61230;46.328;19.972;2023-05-15T06:59:44;99946.25;;;14.71;100.00
73063;BME280;61230;46.328;19.972;2023-05-15T07:02:12;99948.75;;;14.72;100.00
73063;BME280;61230;46.328;19.972;2023-05-15T07:04:40;99901.28;;;14.48;100.00
73063;BME280;61230;46.328;19.972;2023-05-15T07:07:08;99928.09;;;14.82;100.00
73063;BME280;61230;46.328;19.972;2023-05-15T07:09:35;99931.87;;;14.88;100.00
73063;BME280;61230;46.328;19.972;2023-05-15T07:12:04;99932.81;;;14.95;100.00
73063;BME280;61230;46.328;19.972;2023-05-15T07:14:32;99940.09;;;14.93;100.00
73063;BME280;61230;46.328;19.972;2023-05-15T07:17:00;99908.09;;;14.80;100.00
73063;BME280;61230;46.328;19.972;2023-05-15T07:19:28;99952.81;;;14.98;100.00
73063;BME280;61230;46.328;19.972;2023-05-15T07:21:56;99945.59;;;15.06;100.00
73063;BME280;61230;46.328;19.972;2023-05-15T07:24:24;99947.22;;;15.07;100.00
73063;BME280;61230;46.328;19.972;2023-05-15T07:26:52;99958.84;;;15.06;100.00
73063;BME280;61230;46.328;19.972;2023-05-15T07:29:25;99954.03;;;15.10;100.00
73063;BME280;61230;46.328;19.972;2023-05-15T07:31:53;99960.59;;;15.14;100.00
73063;BME280;61230;46.328;19.972;2023-05-15T07:34:21;99943.34;;;15.18;100.00
73063;BME280;61230;46.328;19.972;2023-05-15T07:36:48;99948.53;;;15.26;100.00
73063;BME280;61230;46.328;19.972;2023-05-15T07:39:16;99954.50;;;15.42;100.00
73063;BME280;61230;46.328;19.972;2023-05-15T07:41:44;99965.84;;;15.51;100.00
73063;BME280;61230;46.328;19.972;2023-05-15T07:44:13;99967.94;;;15.56;100.00
73063;BME280;61230;46.328;19.972;2023-05-15T07:46:41;99916.91;;;15.39;100.00
73063;BME280;61230;46.328;19.972;2023-05-15T07:49:08;99959.34;;;15.68;100.00
73063;BME280;61230;46.328;19.972;2023-05-15T07:51:36;99961.19;;;15.68;100.00
73063;BME280;61230;46.328;19.972;2023-05-15T07:54:04;99967.12;;;15.70;100.00
73063;BME280;61230;46.328;19.972;2023-05-15T07:56:31;99971.06;;;15.74;100.00
73063;BME280;61230;46.328;19.972;2023-05-15T07:58:59;99976.88;;;15.84;100.00
73063;BME280;61230;46.328;19.972;2023-05-15T08:01:27;99966.06;;;16.00;100.00
73063;BME280;61230;46.328;19.972;2023-05-15T08:03:57;99968.06;;;15.98;100.00
73063;BME280;61230;46.328;19.972;2023-05-15T08:06:24;99936.47;;;15.82;100.00
73063;BME280;61230;46.328;19.972;2023-05-15T08:08:52;99980.53;;;15.97;100.00
73063;BME280;61230;46.328;19.972;2023-05-15T08:11:20;99970.94;;;15.96;100.00
73063;BME280;61230;46.328;19.972;2023-05-15T08:13:48;99967.91;;;15.99;100.00
73063;BME280;61230;46.328;19.972;2023-05-15T08:16:17;99977.69;;;15.99;100.00
73063;BME280;61230;46.328;19.972;2023-05-15T08:18:45;99976.84;;;16.13;100.00
73063;BME280;61230;46.328;19.972;2023-05-15T08:21:12;99969.50;;;16.15;100.00
73063;BME280;61230;46.328;19.972;2023-05-15T08:23:39;99978.13;;;16.17;100.00
73063;BME280;61230;46.328;19.972;2023-05-15T08:26:07;99974.97;;;16.28;100.00
73063;BME280;61230;46.328;19.972;2023-05-15T08:28:35;99977.75;;;16.41;100.00
73063;BME280;61230;46.328;19.972;2023-05-15T08:31:02;99954.72;;;16.27;100.00
73063;BME280;61230;46.328;19.972;2023-05-15T08:33:30;99994.13;;;16.59;100.00
73063;BME280;61230;46.328;19.972;2023-05-15T08:35:57;99997.59;;;16.60;100.00
73063;BME280;61230;46.328;19.972;2023-05-15T08:38:25;100000.25;;;16.60;100.00
73063;BME280;61230;46.328;19.972;2023-05-15T08:40:57;99961.56;;;16.36;100.00
73063;BME280;61230;46.328;19.972;2023-05-15T08:43:25;99992.91;;;16.62;100.00
73063;BME280;61230;46.328;19.972;2023-05-15T08:45:56;99996.19;;;16.64;100.00
73063;BME280;61230;46.328;19.972;2023-05-15T08:48:28;100000.88;;;16.62;100.00
73063;BME280;61230;46.328;19.972;2023-05-15T08:50:57;99966.19;;;16.28;100.00
73063;BME280;61230;46.328;19.972;2023-05-15T08:53:27;99990.19;;;16.41;100.00
73063;BME280;61230;46.328;19.972;2023-05-15T08:55:55;99957.50;;;16.19;100.00
73063;BME280;61230;46.328;19.972;2023-05-15T08:58:24;99991.34;;;16.53;100.00
73063;BME280;61230;46.328;19.972;2023-05-15T09:00:55;99993.09;;;16.60;100.00
73063;BME280;61230;46.328;19.972;2023-05-15T09:03:24;99992.84;;;16.77;100.00
73063;BME280;61230;46.328;19.972;2023-05-15T09:05:53;99999.41;;;16.81;100.00
73063;BME280;61230;46.328;19.972;2023-05-15T09:08:21;99994.59;;;16.91;100.00
73063;BME280;61230;46.328;19.972;2023-05-15T09:10:52;99985.13;;;16.82;100.00
73063;BME280;61230;46.328;19.972;2023-05-15T09:13:20;99990.19;;;16.77;100.00
73063;BME280;61230;46.328;19.972;2023-05-15T09:15:47;99995.38;;;16.85;100.00
73063;BME280;61230;46.328;19.972;2023-05-15T09:18:15;99986.00;;;16.67;100.00
73063;BME280;61230;46.328;19.972;2023-05-15T09:20:43;99997.09;;;16.71;100.00
73063;BME280;61230;46.328;19.972;2023-05-15T09:23:25;99996.38;;;16.84;100.00
73063;BME280;61230;46.328;19.972;2023-05-15T09:25:53;100001.34;;;16.65;100.00
73063;BME280;61230;46.328;19.972;2023-05-15T09:28:28;100004.62;;;16.67;100.00
73063;BME280;61230;46.328;19.972;2023-05-15T09:31:01;100013.22;;;16.70;100.00
73063;BME280;61230;46.328;19.972;2023-05-15T09:33:33;100024.97;;;16.60;100.00
73063;BME280;61230;46.328;19.972;2023-05-15T09:36:03;100025.41;;;16.64;100.00
73063;BME280;61230;46.328;19.972;2023-05-15T09:38:56;100020.56;;;16.53;100.00
73063;BME280;61230;46.328;19.972;2023-05-15T09:41:25;100017.22;;;16.44;100.00
73063;BME280;61230;46.328;19.972;2023-05-15T09:43:54;100017.09;;;16.52;100.00
73063;BME280;61230;46.328;19.972;2023-05-15T09:46:23;99975.22;;;16.33;100.00
73063;BME280;61230;46.328;19.972;2023-05-15T09:48:54;99977.50;;;16.36;100.00
73063;BME280;61230;46.328;19.972;2023-05-15T09:51:22;100031.69;;;16.56;100.00
73063;BME280;61230;46.328;19.972;2023-05-15T09:53:53;100030.66;;;16.57;100.00
73063;BME280;61230;46.328;19.972;2023-05-15T09:56:21;100032.50;;;16.57;100.00
73063;BME280;61230;46.328;19.972;2023-05-15T09:58:58;100000.06;;;16.26;100.00
73063;BME280;61230;46.328;19.972;2023-05-15T10:01:26;100035.22;;;16.63;100.00
73063;BME280;61230;46.328;19.972;2023-05-15T10:03:58;100032.19;;;16.66;100.00
73063;BME280;61230;46.328;19.972;2023-05-15T10:06:26;100035.88;;;16.65;100.00
73063;BME280;61230;46.328;19.972;2023-05-15T10:09:01;100002.09;;;16.59;100.00
73063;BME280;61230;46.328;19.972;2023-05-15T10:11:29;100039.19;;;16.95;100.00
73063;BME280;61230;46.328;19.972;2023-05-15T10:13:59;100048.38;;;16.93;100.00
73063;BME280;61230;46.328;19.972;2023-05-15T10:16:27;99984.25;;;16.53;100.00
73063;BME280;61230;46.328;19.972;2023-05-15T10:18:56;100003.84;;;16.74;100.00
73063;BME280;61230;46.328;19.972;2023-05-15T10:21:25;100023.31;;;17.02;100.00
73063;BME280;61230;46.328;19.972;2023-05-15T10:23:55;100037.94;;;17.12;100.00
73063;BME280;61230;46.328;19.972;2023-05-15T10:26:37;100008.91;;;16.90;100.00
73063;BME280;61230;46.328;19.972;2023-05-15T10:29:12;100034.25;;;17.13;100.00
73063;BME280;61230;46.328;19.972;2023-05-15T10:31:41;100036.03;;;17.06;100.00
73063;BME280;61230;46.328;19.972;2023-05-15T10:34:09;100035.41;;;17.04;100.00
73063;BME280;61230;46.328;19.972;2023-05-15T10:36:38;100035.66;;;17.09;100.00
73063;BME280;61230;46.328;19.972;2023-05-15T10:39:08;100039.12;;;17.10;100.00
73063;BME280;61230;46.328;19.972;2023-05-15T10:41:38;99991.50;;;16.87;100.00
73063;BME280;61230;46.328;19.972;2023-05-15T10:44:05;100021.53;;;17.09;100.00
73063;BME280;61230;46.328;19.972;2023-05-15T10:46:34;100022.34;;;17.09;100.00
73063;BME280;61230;46.328;19.972;2023-05-15T10:49:04;100020.13;;;17.13;100.00
73063;BME280;61230;46.328;19.972;2023-05-15T10:51:32;100022.94;;;17.05;100.00
73063;BME280;61230;46.328;19.972;2023-05-15T10:54:00;100021.16;;;17.12;100.00
73063;BME280;61230;46.328;19.972;2023-05-15T10:56:32;100024.19;;;17.09;100.00
73063;BME280;61230;46.328;19.972;2023-05-15T10:59:07;99984.59;;;16.93;100.00
73063;BME280;61230;46.328;19.972;2023-05-15T11:01:37;100031.00;;;17.18;100.00
73063;BME280;61230;46.328;19.972;2023-05-15T11:04:14;100023.25;;;17.16;100.00
73063;BME280;61230;46.328;19.972;2023-05-15T11:06:46;100029.94;;;17.12;100.00
73063;BME280;61230;46.328;19.972;2023-05-15T11:11:56;100035.41;;;17.04;100.00
73063;BME280;61230;46.328;19.972;2023-05-15T11:14:27;100035.41;;;17.04;100.00
73063;BME280;61230;46.328;19.972;2023-05-15T11:17:03;100030.47;;;17.01;100.00
73063;BME280;61230;46.328;19.972;2023-05-15T11:22:32;100047.63;;;16.99;100.00
73063;BME280;61230;46.328;19.972;2023-05-15T11:25:09;100045.09;;;16.91;100.00
73063;BME280;61230;46.328;19.972;2023-05-15T11:27:43;100000.28;;;16.66;100.00
73063;BME280;61230;46.328;19.972;2023-05-15T11:30:19;100045.28;;;16.89;100.00
73063;BME280;61230;46.328;19.972;2023-05-15T11:32:59;100052.59;;;16.66;100.00
73063;BME280;61230;46.328;19.972;2023-05-15T11:35:39;100036.41;;;16.25;100.00
73063;BME280;61230;46.328;19.972;2023-05-15T11:40:47;100013.37;;;15.96;100.00
73063;BME280;61230;46.328;19.972;2023-05-15T11:43:23;100053.00;;;15.98;100.00
73063;BME280;61230;46.328;19.972;2023-05-15T11:46:00;100039.66;;;15.91;100.00
73063;BME280;61230;46.328;19.972;2023-05-15T11:48:33;100030.72;;;15.78;100.00
73063;BME280;61230;46.328;19.972;2023-05-15T11:51:01;100010.25;;;15.34;100.00
73063;BME280;61230;46.328;19.972;2023-05-15T11:53:29;100034.13;;;15.34;100.00
73063;BME280;61230;46.328;19.972;2023-05-15T11:55:58;100039.31;;;15.28;100.00
73063;BME280;61230;46.328;19.972;2023-05-15T11:58:25;100047.81;;;15.61;100.00
73063;BME280;61230;46.328;19.972;2023-05-15T12:00:53;100036.56;;;15.36;100.00
73063;BME280;61230;46.328;19.972;2023-05-15T12:03:23;100035.69;;;15.43;100.00
73063;BME280;61230;46.328;19.972;2023-05-15T12:05:52;100038.41;;;15.35;100.00
73063;BME280;61230;46.328;19.972;2023-05-15T12:08:34;100024.56;;;15.48;100.00
73063;BME280;61230;46.328;19.972;2023-05-15T12:11:03;100030.16;;;15.30;100.00
73063;BME280;61230;46.328;19.972;2023-05-15T12:13:32;100026.84;;;15.66;100.00
73063;BME280;61230;46.328;19.972;2023-05-15T12:16:01;100009.38;;;15.71;100.00
73063;BME280;61230;46.328;19.972;2023-05-15T12:18:30;100024.06;;;15.44;100.00
73063;BME280;61230;46.328;19.972;2023-05-15T12:20:59;100020.78;;;15.42;100.00
73063;BME280;61230;46.328;19.972;2023-05-15T12:23:26;100026.28;;;15.85;100.00
73063;BME280;61230;46.328;19.972;2023-05-15T12:25:58;100019.78;;;15.73;100.00
73063;BME280;61230;46.328;19.972;2023-05-15T12:28:28;100020.91;;;15.78;100.00
73063;BME280;61230;46.328;19.972;2023-05-15T12:30:57;100021.34;;;15.82;100.00
73063;BME280;61230;46.328;19.972;2023-05-15T12:33:25;100010.84;;;15.74;100.00
73063;BME280;61230;46.328;19.972;2023-05-15T12:35:54;100019.69;;;15.81;100.00
73063;BME280;61230;46.328;19.972;2023-05-15T12:38:27;100012.88;;;15.72;100.00
73063;BME280;61230;46.328;19.972;2023-05-15T12:40:55;100009.81;;;15.45;100.00
73063;BME280;61230;46.328;19.972;2023-05-15T12:43:23;100005.84;;;15.49;100.00
73063;BME280;61230;46.328;19.972;2023-05-15T12:45:53;100011.06;;;15.20;100.00
73063;BME280;61230;46.328;19.972;2023-05-15T12:48:22;100002.38;;;15.12;100.00
73063;BME280;61230;46.328;19.972;2023-05-15T12:50:49;99996.38;;;14.95;100.00
73063;BME280;61230;46.328;19.972;2023-05-15T12:53:20;99996.47;;;14.87;100.00
73063;BME280;61230;46.328;19.972;2023-05-15T12:55:49;99991.72;;;14.97;100.00
73063;BME280;61230;46.328;19.972;2023-05-15T12:58:17;99951.66;;;14.77;100.00
73063;BME280;61230;46.328;19.972;2023-05-15T13:00:45;99987.44;;;15.11;100.00
73063;BME280;61230;46.328;19.972;2023-05-15T13:03:14;99966.00;;;15.20;100.00
73063;BME280;61230;46.328;19.972;2023-05-15T13:05:43;99970.19;;;15.44;100.00
73063;BME280;61230;46.328;19.972;2023-05-15T13:08:16;99966.28;;;15.25;100.00